sensor_id;sensor_type;location;lat;lon;timestamp;temperature;humidity
10314;DHT22;5202;49.138;10.090;2022-11-18T00:01:36;8.20;99.90
10314;DHT22;5202;49.138;10.090;2022-11-18T00:04:05;8.10;99.90
10314;DHT22;5202;49.138;10.090;2022-11-18T00:06:33;8.00;99.90
10314;DHT22;5202;49.138;10.090;2022-11-18T00:09:02;7.90;99.90
10314;DHT22;5202;49.138;10.090;2022-11-18T00:11:30;7.90;99.90
10314;DHT22;5202;49.138;10.090;2022-11-18T00:14:17;7.90;99.90
10314;DHT22;5202;49.138;10.090;2022-11-18T00:16:51;7.80;99.90
10314;DHT22;5202;49.138;10.090;2022-11-18T00:19:22;7.80;99.90
10314;DHT22;5202;49.138;10.090;2022-11-18T00:21:52;7.80;99.90
10314;DHT22;5202;49.138;10.090;2022-11-18T00:24:20;7.80;99.90
10314;DHT22;5202;49.138;10.090;2022-11-18T00:26:49;7.80;99.90
10314;DHT22;5202;49.138;10.090;2022-11-18T00:29:18;7.80;99.90
10314;DHT22;5202;49.138;10.090;2022-11-18T00:31:48;7.80;99.90
10314;DHT22;5202;49.138;10.090;2022-11-18T00:34:17;7.80;99.90
10314;DHT22;5202;49.138;10.090;2022-11-18T00:36:46;7.80;99.90
10314;DHT22;5202;49.138;10.090;2022-11-18T00:39:16;7.70;99.90
10314;DHT22;5202;49.138;10.090;2022-11-18T00:41:47;7.70;99.90
10314;DHT22;5202;49.138;10.090;2022-11-18T00:44:45;7.70;99.90
10314;DHT22;5202;49.138;10.090;2022-11-18T00:47:14;7.60;99.90
10314;DHT22;5202;49.138;10.090;2022-11-18T00:49:43;7.60;99.90
10314;DHT22;5202;49.138;10.090;2022-11-18T00:52:11;7.60;99.90
10314;DHT22;5202;49.138;10.090;2022-11-18T00:54:39;7.50;99.90
10314;DHT22;5202;49.138;10.090;2022-11-18T00:57:08;7.50;99.90
10314;DHT22;5202;49.138;10.090;2022-11-18T00:59:36;7.50;99.90
10314;DHT22;5202;49.138;10.090;2022-11-18T01:02:05;7.40;99.90
10314;DHT22;5202;49.138;10.090;2022-11-18T01:05:00;7.40;99.90
10314;DHT22;5202;49.138;10.090;2022-11-18T01:07:28;7.30;99.90
10314;DHT22;5202;49.138;10.090;2022-11-18T01:09:56;7.30;99.90
10314;DHT22;5202;49.138;10.090;2022-11-18T01:12:25;7.30;99.90
10314;DHT22;5202;49.138;10.090;2022-11-18T01:15:17;7.30;99.90
10314;DHT22;5202;49.138;10.090;2022-11-18T01:17:45;7.30;99.90
10314;DHT22;5202;49.138;10.090;2022-11-18T01:20:15;7.30;99.90
10314;DHT22;5202;49.138;10.090;2022-11-18T01:22:43;7.30;99.90
10314;DHT22;5202;49.138;10.090;2022-11-18T01:25:12;7.30;99.90
10314;DHT22;5202;49.138;10.090;2022-11-18T01:27:40;7.20;99.90
10314;DHT22;5202;49.138;10.090;2022-11-18T01:30:09;7.20;99.90
10314;DHT22;5202;49.138;10.090;2022-11-18T01:32:38;7.10;99.90
10314;DHT22;5202;49.138;10.090;2022-11-18T01:35:07;7.10;99.90
10314;DHT22;5202;49.138;10.090;2022-11-18T01:37:37;7.10;99.90
10314;DHT22;5202;49.138;10.090;2022-11-18T01:40:09;7.10;99.90
10314;DHT22;5202;49.138;10.090;2022-11-18T01:42:37;7.10;99.90
10314;DHT22;5202;49.138;10.090;2022-11-18T01:45:19;7.00;99.90
10314;DHT22;5202;49.138;10.090;2022-11-18T01:47:56;7.00;99.90
10314;DHT22;5202;49.138;10.090;2022-11-18T01:50:30;7.10;99.90
10314;DHT22;5202;49.138;10.090;2022-11-18T01:53:03;7.10;99.90
10314;DHT22;5202;49.138;10.090;2022-11-18T01:55:35;7.10;99.90
10314;DHT22;5202;49.138;10.090;2022-11-18T01:58:08;7.20;99.90
10314;DHT22;5202;49.138;10.090;2022-11-18T02:00:38;7.10;99.90
10314;DHT22;5202;49.138;10.090;2022-11-18T02:03:07;7.10;99.90
10314;DHT22;5202;49.138;10.090;2022-11-18T02:05:36;7.10;99.90
10314;DHT22;5202;49.138;10.090;2022-11-18T02:08:07;7.10;99.90
10314;DHT22;5202;49.138;10.090;2022-11-18T02:10:36;7.10;99.90
10314;DHT22;5202;49.138;10.090;2022-11-18T02:13:04;7.10;99.90
10314;DHT22;5202;49.138;10.090;2022-11-18T02:15:46;7.10;99.90
10314;DHT22;5202;49.138;10.090;2022-11-18T02:18:25;7.10;99.90
10314;DHT22;5202;49.138;10.090;2022-11-18T02:21:10;7.10;99.90
10314;DHT22;5202;49.138;10.090;2022-11-18T02:24:07;7.20;99.90
10314;DHT22;5202;49.138;10.090;2022-11-18T02:30:14;7.10;99.90
10314;DHT22;5202;49.138;10.090;2022-11-18T02:32:46;7.20;99.90
10314;DHT22;5202;49.138;10.090;2022-11-18T02:35:21;7.20;99.90
10314;DHT22;5202;49.138;10.090;2022-11-18T02:37:57;7.20;99.90
10314;DHT22;5202;49.138;10.090;2022-11-18T02:40:30;7.30;99.90
10314;DHT22;5202;49.138;10.090;2022-11-18T02:43:03;7.30;99.90
10314;DHT22;5202;49.138;10.090;2022-11-18T02:45:36;7.30;99.90
10314;DHT22;5202;49.138;10.090;2022-11-18T02:48:08;7.30;99.90
10314;DHT22;5202;49.138;10.090;2022-11-18T02:50:38;7.30;99.90
10314;DHT22;5202;49.138;10.090;2022-11-18T02:53:09;7.30;99.90
10314;DHT22;5202;49.138;10.090;2022-11-18T02:55:41;7.30;99.90
10314;DHT22;5202;49.138;10.090;2022-11-18T02:58:11;7.30;99.90
10314;DHT22;5202;49.138;10.090;2022-11-18T03:00:43;7.30;99.90
10314;DHT22;5202;49.138;10.090;2022-11-18T03:03:24;7.30;99.90
10314;DHT22;5202;49.138;10.090;2022-11-18T03:06:03;7.40;99.90
10314;DHT22;5202;49.138;10.090;2022-11-18T03:08:38;7.40;99.90
10314;DHT22;5202;49.138;10.090;2022-11-18T03:11:14;7.30;99.90
10314;DHT22;5202;49.138;10.090;2022-11-18T03:13:56;7.30;99.90
10314;DHT22;5202;49.138;10.090;2022-11-18T03:16:34;7.30;99.90
10314;DHT22;5202;49.138;10.090;2022-11-18T03:19:10;7.30;99.90
10314;DHT22;5202;49.138;10.090;2022-11-18T03:21:49;7.30;99.90
10314;DHT22;5202;49.138;10.090;2022-11-18T03:24:23;7.40;99.90
10314;DHT22;5202;49.138;10.090;2022-11-18T03:27:00;7.40;99.90
10314;DHT22;5202;49.138;10.090;2022-11-18T03:29:35;7.40;99.90
10314;DHT22;5202;49.138;10.090;2022-11-18T03:32:11;7.40;99.90
10314;DHT22;5202;49.138;10.090;2022-11-18T03:34:44;7.40;99.90
10314;DHT22;5202;49.138;10.090;2022-11-18T03:37:16;7.40;99.90
10314;DHT22;5202;49.138;10.090;2022-11-18T03:39:49;7.40;99.90
10314;DHT22;5202;49.138;10.090;2022-11-18T03:42:24;7.20;99.90
10314;DHT22;5202;49.138;10.090;2022-11-18T03:44:59;7.30;99.90
10314;DHT22;5202;49.138;10.090;2022-11-18T03:47:32;7.30;99.90
10314;DHT22;5202;49.138;10.090;2022-11-18T03:50:07;7.30;99.90
10314;DHT22;5202;49.138;10.090;2022-11-18T03:52:39;7.30;99.90
10314;DHT22;5202;49.138;10.090;2022-11-18T03:55:11;7.30;99.90
10314;DHT22;5202;49.138;10.090;2022-11-18T03:57:47;7.40;99.90
10314;DHT22;5202;49.138;10.090;2022-11-18T04:00:18;7.40;99.90
10314;DHT22;5202;49.138;10.090;2022-11-18T04:02:50;7.40;99.90
10314;DHT22;5202;49.138;10.090;2022-11-18T04:05:19;7.40;99.90
10314;DHT22;5202;49.138;10.090;2022-11-18T04:07:54;7.40;99.90
10314;DHT22;5202;49.138;10.090;2022-11-18T04:10:28;7.40;99.90
10314;DHT22;5202;49.138;10.090;2022-11-18T04:13:02;7.30;99.90
10314;DHT22;5202;49.138;10.090;2022-11-18T04:15:36;7.30;99.90
10314;DHT22;5202;49.138;10.090;2022-11-18T04:18:07;7.30;99.90
10314;DHT22;5202;49.138;10.090;2022-11-18T04:20:36;7.30;99.90
10314;DHT22;5202;49.138;10.090;2022-11-18T04:23:05;7.30;99.90
10314;DHT22;5202;49.138;10.090;2022-11-18T04:25:34;7.40;99.90
10314;DHT22;5202;49.138;10.090;2022-11-18T04:28:03;7.30;99.90
10314;DHT22;5202;49.138;10.090;2022-11-18T04:30:32;7.30;99.90
10314;DHT22;5202;49.138;10.090;2022-11-18T04:33:01;7.30;99.90
10314;DHT22;5202;49.138;10.090;2022-11-18T04:35:30;7.20;99.90
10314;DHT22;5202;49.138;10.090;2022-11-18T04:37:58;7.20;99.90
10314;DHT22;5202;49.138;10.090;2022-11-18T04:40:27;7.20;99.90
10314;DHT22;5202;49.138;10.090;2022-11-18T04:42:55;7.20;99.90
10314;DHT22;5202;49.138;10.090;2022-11-18T04:45:23;7.30;99.90
10314;DHT22;5202;49.138;10.090;2022-11-18T04:47:52;7.30;99.90
10314;DHT22;5202;49.138;10.090;2022-11-18T04:50:27;7.30;99.90
10314;DHT22;5202;49.138;10.090;2022-11-18T04:52:57;7.30;99.90
10314;DHT22;5202;49.138;10.090;2022-11-18T04:55:25;7.30;99.90
10314;DHT22;5202;49.138;10.090;2022-11-18T04:57:54;7.30;99.90
10314;DHT22;5202;49.138;10.090;2022-11-18T05:00:22;7.30;99.90
10314;DHT22;5202;49.138;10.090;2022-11-18T05:02:50;7.30;99.90
10314;DHT22;5202;49.138;10.090;2022-11-18T05:05:24;7.30;99.90
10314;DHT22;5202;49.138;10.090;2022-11-18T05:07:52;7.20;99.90
10314;DHT22;5202;49.138;10.090;2022-11-18T05:10:22;7.20;99.90
10314;DHT22;5202;49.138;10.090;2022-11-18T05:12:50;7.20;99.90
10314;DHT22;5202;49.138;10.090;2022-11-18T05:15:19;7.20;99.90
10314;DHT22;5202;49.138;10.090;2022-11-18T05:17:49;7.10;99.90
10314;DHT22;5202;49.138;10.090;2022-11-18T05:20:18;7.10;99.90
10314;DHT22;5202;49.138;10.090;2022-11-18T05:22:47;7.10;99.90
10314;DHT22;5202;49.138;10.090;2022-11-18T05:25:16;7.10;99.90
10314;DHT22;5202;49.138;10.090;2022-11-18T05:27:45;7.00;99.90
10314;DHT22;5202;49.138;10.090;2022-11-18T05:30:14;7.00;99.90
10314;DHT22;5202;49.138;10.090;2022-11-18T05:32:42;7.00;99.90
10314;DHT22;5202;49.138;10.090;2022-11-18T05:35:10;7.00;99.90
10314;DHT22;5202;49.138;10.090;2022-11-18T05:37:38;7.00;99.90
10314;DHT22;5202;49.138;10.090;2022-11-18T05:40:08;7.00;99.90
10314;DHT22;5202;49.138;10.090;2022-11-18T05:42:37;7.00;99.90
10314;DHT22;5202;49.138;10.090;2022-11-18T05:45:25;7.00;99.90
10314;DHT22;5202;49.138;10.090;2022-11-18T05:47:53;6.90;99.90
10314;DHT22;5202;49.138;10.090;2022-11-18T05:50:27;6.90;99.90
10314;DHT22;5202;49.138;10.090;2022-11-18T05:52:55;6.90;99.90
10314;DHT22;5202;49.138;10.090;2022-11-18T05:55:30;6.90;99.90
10314;DHT22;5202;49.138;10.090;2022-11-18T05:58:00;6.90;99.90
10314;DHT22;5202;49.138;10.090;2022-11-18T06:00:31;6.90;99.90
10314;DHT22;5202;49.138;10.090;2022-11-18T06:02:59;6.90;99.90
10314;DHT22;5202;49.138;10.090;2022-11-18T06:05:28;6.80;99.90
10314;DHT22;5202;49.138;10.090;2022-11-18T06:07:57;6.90;99.90
10314;DHT22;5202;49.138;10.090;2022-11-18T06:10:28;6.80;99.90
10314;DHT22;5202;49.138;10.090;2022-11-18T06:13:01;6.80;99.90
10314;DHT22;5202;49.138;10.090;2022-11-18T06:15:38;6.80;99.90
10314;DHT22;5202;49.138;10.090;2022-11-18T06:18:09;6.70;99.90
10314;DHT22;5202;49.138;10.090;2022-11-18T06:20:39;6.60;99.90
10314;DHT22;5202;49.138;10.090;2022-11-18T06:23:08;6.60;99.90
10314;DHT22;5202;49.138;10.090;2022-11-18T06:25:37;6.60;99.90
10314;DHT22;5202;49.138;10.090;2022-11-18T06:28:08;6.60;99.90
10314;DHT22;5202;49.138;10.090;2022-11-18T06:30:39;6.60;99.90
10314;DHT22;5202;49.138;10.090;2022-11-18T06:33:07;6.50;99.90
10314;DHT22;5202;49.138;10.090;2022-11-18T06:35:36;6.50;99.90
10314;DHT22;5202;49.138;10.090;2022-11-18T06:38:04;6.50;99.90
10314;DHT22;5202;49.138;10.090;2022-11-18T06:40:32;6.50;99.90
10314;DHT22;5202;49.138;10.090;2022-11-18T06:43:05;6.50;99.90
10314;DHT22;5202;49.138;10.090;2022-11-18T06:45:52;6.50;99.90
10314;DHT22;5202;49.138;10.090;2022-11-18T06:48:35;6.50;99.90
10314;DHT22;5202;49.138;10.090;2022-11-18T06:51:04;6.40;99.90
10314;DHT22;5202;49.138;10.090;2022-11-18T06:53:32;6.40;99.90
10314;DHT22;5202;49.138;10.090;2022-11-18T06:56:02;6.40;99.90
10314;DHT22;5202;49.138;10.090;2022-11-18T06:58:30;6.40;99.90
10314;DHT22;5202;49.138;10.090;2022-11-18T07:01:09;6.30;99.90
10314;DHT22;5202;49.138;10.090;2022-11-18T07:04:09;6.30;99.90
10314;DHT22;5202;49.138;10.090;2022-11-18T07:07:03;6.30;99.90
10314;DHT22;5202;49.138;10.090;2022-11-18T07:09:33;6.30;99.90
10314;DHT22;5202;49.138;10.090;2022-11-18T07:12:03;6.30;99.90
10314;DHT22;5202;49.138;10.090;2022-11-18T07:14:32;6.30;99.90
10314;DHT22;5202;49.138;10.090;2022-11-18T07:17:02;6.30;99.90
10314;DHT22;5202;49.138;10.090;2022-11-18T07:19:30;6.40;99.90
10314;DHT22;5202;49.138;10.090;2022-11-18T07:22:01;6.40;99.90
10314;DHT22;5202;49.138;10.090;2022-11-18T07:24:30;6.30;99.90
10314;DHT22;5202;49.138;10.090;2022-11-18T07:26:58;6.30;99.90
10314;DHT22;5202;49.138;10.090;2022-11-18T07:29:27;6.30;99.90
10314;DHT22;5202;49.138;10.090;2022-11-18T07:31:55;6.30;99.90
10314;DHT22;5202;49.138;10.090;2022-11-18T07:34:25;6.30;99.90
10314;DHT22;5202;49.138;10.090;2022-11-18T07:36:53;6.30;99.90
10314;DHT22;5202;49.138;10.090;2022-11-18T07:39:21;6.40;99.90
10314;DHT22;5202;49.138;10.090;2022-11-18T07:41:50;6.40;99.90
10314;DHT22;5202;49.138;10.090;2022-11-18T07:44:18;6.40;99.90
10314;DHT22;5202;49.138;10.090;2022-11-18T07:46:46;6.40;99.90
10314;DHT22;5202;49.138;10.090;2022-11-18T07:49:14;6.40;99.90
10314;DHT22;5202;49.138;10.090;2022-11-18T07:51:44;6.40;99.90
10314;DHT22;5202;49.138;10.090;2022-11-18T07:54:13;6.40;99.90
10314;DHT22;5202;49.138;10.090;2022-11-18T07:56:43;6.30;99.90
10314;DHT22;5202;49.138;10.090;2022-11-18T07:59:11;6.40;99.90
10314;DHT22;5202;49.138;10.090;2022-11-18T08:01:39;6.30;99.90
10314;DHT22;5202;49.138;10.090;2022-11-18T08:04:09;6.40;99.90
10314;DHT22;5202;49.138;10.090;2022-11-18T08:06:38;6.40;99.90
10314;DHT22;5202;49.138;10.090;2022-11-18T08:09:09;6.40;99.90
10314;DHT22;5202;49.138;10.090;2022-11-18T08:11:37;6.40;99.90
10314;DHT22;5202;49.138;10.090;2022-11-18T08:14:06;6.50;99.90
10314;DHT22;5202;49.138;10.090;2022-11-18T08:16:35;6.50;99.90
10314;DHT22;5202;49.138;10.090;2022-11-18T08:19:03;6.60;99.90
10314;DHT22;5202;49.138;10.090;2022-11-18T08:21:31;6.60;99.90
10314;DHT22;5202;49.138;10.090;2022-11-18T08:24:00;6.70;99.90
10314;DHT22;5202;49.138;10.090;2022-11-18T08:26:29;6.70;99.90
10314;DHT22;5202;49.138;10.090;2022-11-18T08:28:58;6.70;99.90
10314;DHT22;5202;49.138;10.090;2022-11-18T08:31:28;6.70;99.90
10314;DHT22;5202;49.138;10.090;2022-11-18T08:33:58;6.70;99.90
10314;DHT22;5202;49.138;10.090;2022-11-18T08:36:29;6.70;99.90
10314;DHT22;5202;49.138;10.090;2022-11-18T08:39:00;6.70;99.90
10314;DHT22;5202;49.138;10.090;2022-11-18T08:41:35;6.70;99.90
10314;DHT22;5202;49.138;10.090;2022-11-18T08:44:06;6.80;99.90
10314;DHT22;5202;49.138;10.090;2022-11-18T08:46:34;6.70;99.90
10314;DHT22;5202;49.138;10.090;2022-11-18T08:49:03;6.70;99.90
10314;DHT22;5202;49.138;10.090;2022-11-18T08:51:31;6.70;99.90
10314;DHT22;5202;49.138;10.090;2022-11-18T08:54:00;6.70;99.90
10314;DHT22;5202;49.138;10.090;2022-11-18T08:56:28;6.80;99.90
10314;DHT22;5202;49.138;10.090;2022-11-18T08:58:58;6.80;99.90
10314;DHT22;5202;49.138;10.090;2022-11-18T09:01:30;6.90;99.90
10314;DHT22;5202;49.138;10.090;2022-11-18T09:03:58;6.90;99.90
10314;DHT22;5202;49.138;10.090;2022-11-18T09:06:58;6.90;99.90
10314;DHT22;5202;49.138;10.090;2022-11-18T09:09:27;6.90;99.90
10314;DHT22;5202;49.138;10.090;2022-11-18T09:11:55;6.80;99.90
10314;DHT22;5202;49.138;10.090;2022-11-18T09:14:25;6.70;99.90
10314;DHT22;5202;49.138;10.090;2022-11-18T09:17:13;6.70;99.90
10314;DHT22;5202;49.138;10.090;2022-11-18T09:19:41;6.80;99.90
10314;DHT22;5202;49.138;10.090;2022-11-18T09:22:14;6.80;99.90
10314;DHT22;5202;49.138;10.090;2022-11-18T09:24:42;6.90;99.90
10314;DHT22;5202;49.138;10.090;2022-11-18T09:27:11;6.80;99.90
10314;DHT22;5202;49.138;10.090;2022-11-18T09:29:45;6.80;99.90
10314;DHT22;5202;49.138;10.090;2022-11-18T09:32:13;6.70;99.90
10314;DHT22;5202;49.138;10.090;2022-11-18T09:34:41;6.70;99.90
10314;DHT22;5202;49.138;10.090;2022-11-18T09:37:10;6.70;99.90
10314;DHT22;5202;49.138;10.090;2022-11-18T09:39:38;6.70;99.90
10314;DHT22;5202;49.138;10.090;2022-11-18T09:42:21;6.70;99.90
10314;DHT22;5202;49.138;10.090;2022-11-18T09:45:08;6.80;99.90
10314;DHT22;5202;49.138;10.090;2022-11-18T09:47:50;6.70;99.90
10314;DHT22;5202;49.138;10.090;2022-11-18T09:50:19;6.80;99.90
10314;DHT22;5202;49.138;10.090;2022-11-18T09:53:16;6.80;99.90
10314;DHT22;5202;49.138;10.090;2022-11-18T09:55:48;6.80;99.90
10314;DHT22;5202;49.138;10.090;2022-11-18T09:58:21;6.90;99.90
10314;DHT22;5202;49.138;10.090;2022-11-18T10:00:55;6.90;99.90
10314;DHT22;5202;49.138;10.090;2022-11-18T10:03:26;6.90;99.90
10314;DHT22;5202;49.138;10.090;2022-11-18T10:05:59;6.90;99.90
10314;DHT22;5202;49.138;10.090;2022-11-18T10:08:38;6.90;99.90
10314;DHT22;5202;49.138;10.090;2022-11-18T10:11:14;6.90;99.90
10314;DHT22;5202;49.138;10.090;2022-11-18T10:13:52;7.00;99.90
10314;DHT22;5202;49.138;10.090;2022-11-18T10:16:37;7.00;99.90
10314;DHT22;5202;49.138;10.090;2022-11-18T10:19:21;7.00;99.90
10314;DHT22;5202;49.138;10.090;2022-11-18T10:22:12;7.00;99.90
10314;DHT22;5202;49.138;10.090;2022-11-18T10:24:51;6.90;99.90
10314;DHT22;5202;49.138;10.090;2022-11-18T10:27:21;6.90;99.90
10314;DHT22;5202;49.138;10.090;2022-11-18T10:29:54;6.90;99.90
10314;DHT22;5202;49.138;10.090;2022-11-18T10:32:25;6.90;99.90
10314;DHT22;5202;49.138;10.090;2022-11-18T10:34:54;6.90;99.90
10314;DHT22;5202;49.138;10.090;2022-11-18T10:37:26;6.90;99.90
10314;DHT22;5202;49.138;10.090;2022-11-18T10:40:24;6.90;99.90
10314;DHT22;5202;49.138;10.090;2022-11-18T10:42:54;6.90;99.90
10314;DHT22;5202;49.138;10.090;2022-11-18T10:45:25;6.90;99.90
10314;DHT22;5202;49.138;10.090;2022-11-18T10:48:02;6.90;99.90
10314;DHT22;5202;49.138;10.090;2022-11-18T10:50:36;6.90;99.90
10314;DHT22;5202;49.138;10.090;2022-11-18T10:53:28;6.90;99.90
10314;DHT22;5202;49.138;10.090;2022-11-18T10:55:59;6.90;99.90
10314;DHT22;5202;49.138;10.090;2022-11-18T10:58:29;6.80;99.90
10314;DHT22;5202;49.138;10.090;2022-11-18T11:01:04;6.80;99.90
10314;DHT22;5202;49.138;10.090;2022-11-18T11:03:37;6.80;99.90
10314;DHT22;5202;49.138;10.090;2022-11-18T11:06:36;6.80;99.90
10314;DHT22;5202;49.138;10.090;2022-11-18T11:09:07;6.80;99.90
10314;DHT22;5202;49.138;10.090;2022-11-18T11:11:38;6.80;99.90
10314;DHT22;5202;49.138;10.090;2022-11-18T11:14:17;6.80;99.90
10314;DHT22;5202;49.138;10.090;2022-11-18T11:16:56;6.90;99.90
10314;DHT22;5202;49.138;10.090;2022-11-18T11:19:34;6.90;99.90
10314;DHT22;5202;49.138;10.090;2022-11-18T11:22:09;6.90;99.90
10314;DHT22;5202;49.138;10.090;2022-11-18T11:24:39;6.80;99.90
10314;DHT22;5202;49.138;10.090;2022-11-18T11:27:18;6.80;99.90
10314;DHT22;5202;49.138;10.090;2022-11-18T11:30:18;6.90;99.90
10314;DHT22;5202;49.138;10.090;2022-11-18T11:33:10;6.80;99.90
10314;DHT22;5202;49.138;10.090;2022-11-18T11:36:01;6.90;99.90
10314;DHT22;5202;49.138;10.090;2022-11-18T11:41:38;7.10;99.90
10314;DHT22;5202;49.138;10.090;2022-11-18T11:44:25;6.90;99.90
10314;DHT22;5202;49.138;10.090;2022-11-18T11:47:09;7.00;99.90
10314;DHT22;5202;49.138;10.090;2022-11-18T11:50:07;7.00;99.90
10314;DHT22;5202;49.138;10.090;2022-11-18T11:52:48;7.10;99.90
10314;DHT22;5202;49.138;10.090;2022-11-18T11:55:26;7.10;99.90
10314;DHT22;5202;49.138;10.090;2022-11-18T11:58:22;7.10;99.90
10314;DHT22;5202;49.138;10.090;2022-11-18T12:01:04;7.20;99.90
10314;DHT22;5202;49.138;10.090;2022-11-18T12:03:43;7.10;99.90
10314;DHT22;5202;49.138;10.090;2022-11-18T12:06:18;7.10;99.90
10314;DHT22;5202;49.138;10.090;2022-11-18T12:09:02;7.10;99.90
10314;DHT22;5202;49.138;10.090;2022-11-18T12:11:42;7.10;99.90
10314;DHT22;5202;49.138;10.090;2022-11-18T12:14:23;7.10;99.90
10314;DHT22;5202;49.138;10.090;2022-11-18T12:16:57;7.10;99.90
10314;DHT22;5202;49.138;10.090;2022-11-18T12:19:28;7.20;99.90
10314;DHT22;5202;49.138;10.090;2022-11-18T12:21:58;7.20;99.90
10314;DHT22;5202;49.138;10.090;2022-11-18T12:24:33;7.20;99.90
10314;DHT22;5202;49.138;10.090;2022-11-18T12:27:09;7.20;99.90
10314;DHT22;5202;49.138;10.090;2022-11-18T12:29:53;7.30;99.90
10314;DHT22;5202;49.138;10.090;2022-11-18T12:32:40;7.30;99.90
10314;DHT22;5202;49.138;10.090;2022-11-18T12:35:24;7.30;99.90
10314;DHT22;5202;49.138;10.090;2022-11-18T12:38:00;7.10;99.90
10314;DHT22;5202;49.138;10.090;2022-11-18T12:40:39;7.20;99.90
10314;DHT22;5202;49.138;10.090;2022-11-18T12:46:49;7.20;99.90
10314;DHT22;5202;49.138;10.090;2022-11-18T12:52:51;7.20;99.90
10314;DHT22;5202;49.138;10.090;2022-11-18T12:55:24;7.20;99.90
10314;DHT22;5202;49.138;10.090;2022-11-18T12:57:59;7.30;99.90
10314;DHT22;5202;49.138;10.090;2022-11-18T13:00:30;7.20;99.90
10314;DHT22;5202;49.138;10.090;2022-11-18T13:03:23;7.20;99.90
10314;DHT22;5202;49.138;10.090;2022-11-18T13:06:00;7.30;99.90
10314;DHT22;5202;49.138;10.090;2022-11-18T13:08:32;7.30;99.90
10314;DHT22;5202;49.138;10.090;2022-11-18T13:11:14;7.30;99.90
10314;DHT22;5202;49.138;10.090;2022-11-18T13:14:15;7.30;99.90
10314;DHT22;5202;49.138;10.090;2022-11-18T13:17:02;7.30;99.90
10314;DHT22;5202;49.138;10.090;2022-11-18T13:19:55;7.40;99.90
10314;DHT22;5202;49.138;10.090;2022-11-18T13:22:24;7.40;99.90
10314;DHT22;5202;49.138;10.090;2022-11-18T13:25:23;7.40;99.90
10314;DHT22;5202;49.138;10.090;2022-11-18T13:27:58;7.40;99.90
10314;DHT22;5202;49.138;10.090;2022-11-18T13:30:35;7.40;99.90
10314;DHT22;5202;49.138;10.090;2022-11-18T13:33:09;7.40;99.90
10314;DHT22;5202;49.138;10.090;2022-11-18T13:35:39;7.40;99.90
10314;DHT22;5202;49.138;10.090;2022-11-18T13:38:18;7.50;99.90
10314;DHT22;5202;49.138;10.090;2022-11-18T13:40:54;7.40;99.90
10314;DHT22;5202;49.138;10.090;2022-11-18T13:43:34;7.40;99.90
10314;DHT22;5202;49.138;10.090;2022-11-18T13:46:08;7.40;99.90
10314;DHT22;5202;49.138;10.090;2022-11-18T13:48:46;7.40;99.90
10314;DHT22;5202;49.138;10.090;2022-11-18T13:51:17;7.40;99.90
10314;DHT22;5202;49.138;10.090;2022-11-18T13:53:46;7.40;99.90
10314;DHT22;5202;49.138;10.090;2022-11-18T13:56:18;7.40;99.90
10314;DHT22;5202;49.138;10.090;2022-11-18T13:58:52;7.40;99.90
10314;DHT22;5202;49.138;10.090;2022-11-18T14:01:44;7.40;99.90
10314;DHT22;5202;49.138;10.090;2022-11-18T14:04:18;7.40;99.90
10314;DHT22;5202;49.138;10.090;2022-11-18T14:06:49;7.30;99.90
10314;DHT22;5202;49.138;10.090;2022-11-18T14:09:21;7.30;99.90
10314;DHT22;5202;49.138;10.090;2022-11-18T14:12:00;7.30;99.90
10314;DHT22;5202;49.138;10.090;2022-11-18T14:14:32;7.30;99.90
10314;DHT22;5202;49.138;10.090;2022-11-18T14:17:13;7.30;99.90
10314;DHT22;5202;49.138;10.090;2022-11-18T14:19:44;7.20;99.90
10314;DHT22;5202;49.138;10.090;2022-11-18T14:22:17;7.20;99.90
10314;DHT22;5202;49.138;10.090;2022-11-18T14:24:54;7.20;99.90
10314;DHT22;5202;49.138;10.090;2022-11-18T14:27:37;7.10;99.90
10314;DHT22;5202;49.138;10.090;2022-11-18T14:30:31;7.10;99.90
10314;DHT22;5202;49.138;10.090;2022-11-18T14:33:19;7.10;99.90
10314;DHT22;5202;49.138;10.090;2022-11-18T14:35:55;7.10;99.90
10314;DHT22;5202;49.138;10.090;2022-11-18T14:38:29;7.00;99.90
10314;DHT22;5202;49.138;10.090;2022-11-18T14:41:23;7.00;99.90
10314;DHT22;5202;49.138;10.090;2022-11-18T14:44:11;6.90;99.90
10314;DHT22;5202;49.138;10.090;2022-11-18T14:46:42;7.00;99.90
10314;DHT22;5202;49.138;10.090;2022-11-18T14:49:14;7.00;99.90
10314;DHT22;5202;49.138;10.090;2022-11-18T14:51:45;7.00;99.90
10314;DHT22;5202;49.138;10.090;2022-11-18T14:54:14;7.10;99.90
10314;DHT22;5202;49.138;10.090;2022-11-18T14:56:54;7.00;99.90
10314;DHT22;5202;49.138;10.090;2022-11-18T14:59:24;7.10;99.90
10314;DHT22;5202;49.138;10.090;2022-11-18T15:02:17;7.10;99.90
10314;DHT22;5202;49.138;10.090;2022-11-18T15:04:48;7.10;99.90
10314;DHT22;5202;49.138;10.090;2022-11-18T15:07:16;7.10;99.90
10314;DHT22;5202;49.138;10.090;2022-11-18T15:09:49;7.10;99.90
10314;DHT22;5202;49.138;10.090;2022-11-18T15:12:18;7.10;99.90
10314;DHT22;5202;49.138;10.090;2022-11-18T15:14:46;7.10;99.90
10314;DHT22;5202;49.138;10.090;2022-11-18T15:17:14;7.10;99.90
10314;DHT22;5202;49.138;10.090;2022-11-18T15:19:47;7.10;99.90
10314;DHT22;5202;49.138;10.090;2022-11-18T15:22:16;7.10;99.90
10314;DHT22;5202;49.138;10.090;2022-11-18T15:24:44;7.10;99.90
10314;DHT22;5202;49.138;10.090;2022-11-18T15:27:13;7.20;99.90
10314;DHT22;5202;49.138;10.090;2022-11-18T15:29:41;7.10;99.90
10314;DHT22;5202;49.138;10.090;2022-11-18T15:32:10;7.10;99.90
10314;DHT22;5202;49.138;10.090;2022-11-18T15:34:38;7.10;99.90
10314;DHT22;5202;49.138;10.090;2022-11-18T15:37:09;7.10;99.90
10314;DHT22;5202;49.138;10.090;2022-11-18T15:39:38;7.10;99.90
10314;DHT22;5202;49.138;10.090;2022-11-18T15:42:06;7.10;99.90
10314;DHT22;5202;49.138;10.090;2022-11-18T15:44:35;7.10;99.90
10314;DHT22;5202;49.138;10.090;2022-11-18T15:47:03;7.10;99.90
10314;DHT22;5202;49.138;10.090;2022-11-18T15:49:31;7.10;99.90
10314;DHT22;5202;49.138;10.090;2022-11-18T15:52:00;7.10;99.90
10314;DHT22;5202;49.138;10.090;2022-11-18T15:54:30;7.00;99.90
10314;DHT22;5202;49.138;10.090;2022-11-18T15:56:58;7.00;99.90
10314;DHT22;5202;49.138;10.090;2022-11-18T15:59:26;7.00;99.90
10314;DHT22;5202;49.138;10.090;2022-11-18T16:01:55;7.00;99.90
10314;DHT22;5202;49.138;10.090;2022-11-18T16:04:24;7.00;99.90
10314;DHT22;5202;49.138;10.090;2022-11-18T16:06:53;7.00;99.90
10314;DHT22;5202;49.138;10.090;2022-11-18T16:09:22;7.00;99.90
10314;DHT22;5202;49.138;10.090;2022-11-18T16:12:12;7.00;99.90
10314;DHT22;5202;49.138;10.090;2022-11-18T16:14:58;7.00;99.90
10314;DHT22;5202;49.138;10.090;2022-11-18T16:17:43;7.00;99.90
10314;DHT22;5202;49.138;10.090;2022-11-18T16:20:12;7.00;99.90
10314;DHT22;5202;49.138;10.090;2022-11-18T16:22:41;7.00;99.90
10314;DHT22;5202;49.138;10.090;2022-11-18T16:25:10;7.00;99.90
10314;DHT22;5202;49.138;10.090;2022-11-18T16:27:40;7.00;99.90
10314;DHT22;5202;49.138;10.090;2022-11-18T16:30:09;7.00;99.90
10314;DHT22;5202;49.138;10.090;2022-11-18T16:32:59;6.90;99.90
10314;DHT22;5202;49.138;10.090;2022-11-18T16:35:27;6.90;99.90
10314;DHT22;5202;49.138;10.090;2022-11-18T16:37:56;6.80;99.90
10314;DHT22;5202;49.138;10.090;2022-11-18T16:40:24;6.80;99.90